Time;durP1;ratioP1;P1;durP2;ratioP2;P2;SDS_P1;SDS_P2;PMS_P1;PMS_P2;Temp;Humidity;BMP_temperature;BMP_pressure;BME280_temperature;BME280_humidity;BME280_pressure;Samples;Min_cycle;Max_cycle;Signal;HPM_P1;HPM_P2
2021/06/23 00:01:40;;;;;;;;;;;13.50;99.90;;;;;;5065223;28;19909;-50
2021/06/23 00:04:05;;;;;;;;;;;13.50;99.90;;;;;;5043199;28;20489;-47
2021/06/23 00:06:31;;;;;;;;;;;13.50;99.90;;;;;;5065589;28;20007;-49
2021/06/23 00:08:56;;;;;;;;;;;13.50;99.90;;;;;;5044875;28;20339;-52
2021/06/23 00:11:22;;;;;;;;;;;13.50;99.90;;;;;;5066728;28;20008;-49
2021/06/23 00:13:49;;;;;;;;;;;13.50;99.90;;;;;;5064191;28;19957;-50
2021/06/23 00:16:15;;;;;;;;;;;13.50;99.90;;;;;;5058776;28;19912;-52
2021/06/23 00:18:40;;;;;;;;;;;13.50;99.90;;;;;;5065012;28;19970;-47
2021/06/23 00:21:06;;;;;;;;;;;13.50;99.90;;;;;;5060656;28;19955;-50
2021/06/23 00:23:32;;;;;;;;;;;13.50;99.90;;;;;;5065824;28;19916;-48
2021/06/23 00:25:57;;;;;;;;;;;13.50;99.90;;;;;;5062106;28;19935;-51
2021/06/23 00:28:23;;;;;;;;;;;13.50;99.90;;;;;;5066518;28;19909;-52
2021/06/23 00:30:48;;;;;;;;;;;13.50;99.90;;;;;;5064127;28;19908;-50
2021/06/23 00:33:19;;;;;;;;;;;13.60;99.90;;;;;;5059222;28;19909;-51
2021/06/23 00:35:45;;;;;;;;;;;13.60;99.90;;;;;;5064737;28;19916;-49
2021/06/23 00:38:11;;;;;;;;;;;13.60;99.90;;;;;;5061117;28;20663;-49
2021/06/23 00:40:36;;;;;;;;;;;13.60;99.90;;;;;;5065867;28;20021;-53
2021/06/23 00:43:03;;;;;;;;;;;13.50;99.90;;;;;;5062384;28;19954;-51
2021/06/23 00:45:29;;;;;;;;;;;13.50;99.90;;;;;;5061057;28;19920;-53
2021/06/23 00:47:56;;;;;;;;;;;13.60;99.90;;;;;;5068957;28;19908;-52
2021/06/23 00:50:22;;;;;;;;;;;13.50;99.90;;;;;;5065874;28;19917;-51
2021/06/23 00:52:48;;;;;;;;;;;13.50;99.90;;;;;;5069085;28;19916;-50
2021/06/23 00:55:20;;;;;;;;;;;13.50;99.90;;;;;;5068533;28;20547;-52
2021/06/23 00:57:47;;;;;;;;;;;13.50;99.90;;;;;;5061274;28;19912;-54
2021/06/23 01:00:13;;;;;;;;;;;13.50;99.90;;;;;;5068123;28;19952;-49
2021/06/23 01:02:39;;;;;;;;;;;13.50;99.90;;;;;;5055105;28;19948;-54
2021/06/23 01:05:05;;;;;;;;;;;13.50;99.90;;;;;;5068959;28;19967;-52
2021/06/23 01:07:30;;;;;;;;;;;13.60;99.90;;;;;;5065172;28;19916;-56
2021/06/23 01:09:57;;;;;;;;;;;13.50;99.90;;;;;;5069855;28;19995;-51
2021/06/23 01:12:25;;;;;;;;;;;13.50;99.90;;;;;;5067638;28;20007;-52
2021/06/23 01:14:54;;;;;;;;;;;13.50;99.90;;;;;;5061224;28;19912;-50
2021/06/23 01:17:20;;;;;;;;;;;13.50;99.90;;;;;;5069985;28;19915;-51
2021/06/23 01:19:47;;;;;;;;;;;13.60;99.90;;;;;;5062006;28;19905;-48
2021/06/23 01:22:14;;;;;;;;;;;13.60;99.90;;;;;;5053041;28;19962;-52
2021/06/23 01:24:41;;;;;;;;;;;13.60;99.90;;;;;;5063112;28;20268;-50
2021/06/23 01:27:07;;;;;;;;;;;13.60;99.90;;;;;;5070963;28;19912;-51
2021/06/23 01:29:32;;;;;;;;;;;13.60;99.90;;;;;;5066026;28;19962;-50
2021/06/23 01:31:58;;;;;;;;;;;13.60;99.90;;;;;;5062232;28;19916;-48
2021/06/23 01:34:23;;;;;;;;;;;13.60;99.90;;;;;;5068718;28;19996;-50
2021/06/23 01:36:49;;;;;;;;;;;13.60;99.90;;;;;;5044009;28;20003;-54
2021/06/23 01:39:14;;;;;;;;;;;13.60;99.90;;;;;;5071456;28;19908;-47
2021/06/23 01:41:40;;;;;;;;;;;13.60;99.90;;;;;;5063310;28;19908;-49
2021/06/23 01:44:05;;;;;;;;;;;13.60;99.90;;;;;;5070764;28;19909;-50
2021/06/23 01:46:31;;;;;;;;;;;13.60;99.90;;;;;;5061586;28;19913;-49
2021/06/23 01:48:56;;;;;;;;;;;13.60;99.90;;;;;;5066537;28;19939;-49
2021/06/23 01:51:22;;;;;;;;;;;13.60;99.90;;;;;;5064381;28;19916;-48
2021/06/23 01:53:48;;;;;;;;;;;13.60;99.90;;;;;;5066847;28;20349;-53
2021/06/23 01:56:13;;;;;;;;;;;13.60;99.90;;;;;;5067102;28;19916;-50
2021/06/23 01:58:40;;;;;;;;;;;13.60;99.90;;;;;;5046127;28;19915;-48
2021/06/23 02:01:05;;;;;;;;;;;13.60;99.90;;;;;;5062490;28;19951;-51
2021/06/23 02:03:31;;;;;;;;;;;13.60;99.90;;;;;;5068804;28;19948;-50
2021/06/23 02:06:03;;;;;;;;;;;13.60;99.90;;;;;;5065313;28;19982;-50
2021/06/23 02:08:33;;;;;;;;;;;13.60;99.90;;;;;;5069242;28;19908;-48
2021/06/23 02:11:03;;;;;;;;;;;13.60;99.90;;;;;;5066125;28;20018;-53
2021/06/23 02:13:28;;;;;;;;;;;13.60;99.90;;;;;;5064035;28;20363;-50
2021/06/23 02:15:57;;;;;;;;;;;13.60;99.90;;;;;;5049341;28;19915;-48
2021/06/23 02:18:26;;;;;;;;;;;13.60;99.90;;;;;;5064265;28;19908;-50
2021/06/23 02:20:53;;;;;;;;;;;13.60;99.90;;;;;;5068555;28;20309;-53
2021/06/23 02:23:19;;;;;;;;;;;13.60;99.90;;;;;;5047723;28;20405;-49
2021/06/23 02:25:45;;;;;;;;;;;13.60;99.90;;;;;;5068626;28;19912;-49
2021/06/23 02:28:11;;;;;;;;;;;13.60;99.90;;;;;;5065323;28;19962;-52
2021/06/23 02:30:37;;;;;;;;;;;13.50;99.90;;;;;;5047421;28;19909;-48
2021/06/23 02:33:04;;;;;;;;;;;13.50;99.90;;;;;;5068026;28;19980;-52
2021/06/23 02:35:30;;;;;;;;;;;13.50;99.90;;;;;;5059134;28;20020;-50
2021/06/23 02:37:58;;;;;;;;;;;13.50;99.90;;;;;;5068650;28;19909;-50
2021/06/23 02:40:23;;;;;;;;;;;13.50;99.90;;;;;;5061790;28;19913;-51
2021/06/23 02:42:49;;;;;;;;;;;13.50;99.90;;;;;;5065934;28;20282;-54
2021/06/23 02:45:14;;;;;;;;;;;13.50;99.90;;;;;;5046241;28;20390;-53
2021/06/23 02:47:40;;;;;;;;;;;13.50;99.90;;;;;;5065647;28;20393;-50
2021/06/23 02:50:06;;;;;;;;;;;13.60;99.90;;;;;;5067271;28;20387;-51
2021/06/23 02:52:34;;;;;;;;;;;13.60;99.90;;;;;;5047016;28;19908;-48
2021/06/23 02:55:00;;;;;;;;;;;13.60;99.90;;;;;;5067929;28;19962;-53
2021/06/23 02:57:26;;;;;;;;;;;13.60;99.90;;;;;;5061002;28;20409;-54
2021/06/23 02:59:52;;;;;;;;;;;13.60;99.90;;;;;;5065727;28;19908;-52
2021/06/23 03:02:17;;;;;;;;;;;13.60;99.90;;;;;;5066042;28;20398;-50
2021/06/23 03:04:44;;;;;;;;;;;13.60;99.90;;;;;;5066534;28;19912;-50
2021/06/23 03:07:10;;;;;;;;;;;13.60;99.90;;;;;;5068100;28;19912;-51
2021/06/23 03:09:36;;;;;;;;;;;13.60;99.90;;;;;;5058961;28;20429;-51
2021/06/23 03:12:02;;;;;;;;;;;13.70;99.90;;;;;;5067190;28;19908;-48
2021/06/23 03:14:27;;;;;;;;;;;13.60;99.90;;;;;;5044418;28;19913;-51
2021/06/23 03:16:53;;;;;;;;;;;13.70;99.90;;;;;;5066841;28;19908;-52
2021/06/23 03:19:18;;;;;;;;;;;13.70;99.90;;;;;;5065513;28;19908;-52
2021/06/23 03:21:44;;;;;;;;;;;13.70;99.90;;;;;;5066332;28;19916;-54
2021/06/23 03:24:09;;;;;;;;;;;13.70;99.90;;;;;;5067894;28;20386;-49
2021/06/23 03:26:34;;;;;;;;;;;13.70;99.90;;;;;;5059396;28;19912;-49
2021/06/23 03:29:13;;;;;;;;;;;13.70;99.90;;;;;;5049013;28;19908;-53
2021/06/23 03:31:39;;;;;;;;;;;13.70;99.90;;;;;;5061184;28;19909;-50
2021/06/23 03:34:04;;;;;;;;;;;13.70;99.90;;;;;;5068132;28;19916;-51
2021/06/23 03:36:29;;;;;;;;;;;13.70;99.90;;;;;;5063666;28;19984;-50
2021/06/23 03:38:55;;;;;;;;;;;13.70;99.90;;;;;;5067645;28;19970;-50
2021/06/23 03:41:20;;;;;;;;;;;13.80;99.90;;;;;;5066622;28;19912;-51
2021/06/23 03:43:46;;;;;;;;;;;13.80;99.90;;;;;;5059549;28;19963;-51
2021/06/23 03:46:11;;;;;;;;;;;13.80;99.90;;;;;;5067889;28;19916;-48
2021/06/23 03:48:37;;;;;;;;;;;13.80;99.90;;;;;;5061506;28;19913;-55
2021/06/23 03:51:02;;;;;;;;;;;13.80;99.90;;;;;;5067581;28;20011;-52
2021/06/23 03:53:28;;;;;;;;;;;13.80;99.90;;;;;;5063880;28;20341;-49
2021/06/23 03:55:53;;;;;;;;;;;13.80;99.90;;;;;;5041051;28;19917;-50
2021/06/23 03:58:19;;;;;;;;;;;13.90;99.90;;;;;;5066871;28;20354;-50
2021/06/23 04:00:44;;;;;;;;;;;13.90;99.90;;;;;;5063194;28;19920;-49
2021/06/23 04:03:10;;;;;;;;;;;13.90;99.90;;;;;;5063669;28;19908;-52
2021/06/23 04:05:35;;;;;;;;;;;13.90;99.90;;;;;;5069040;28;20374;-53
2021/06/23 04:08:01;;;;;;;;;;;13.90;99.90;;;;;;5063483;28;20055;-52
2021/06/23 04:10:26;;;;;;;;;;;13.90;99.90;;;;;;5062578;28;20302;-53
2021/06/23 04:12:52;;;;;;;;;;;13.90;99.90;;;;;;5064011;28;19960;-52
2021/06/23 04:15:17;;;;;;;;;;;13.90;99.90;;;;;;5063443;28;20297;-51
2021/06/23 04:17:43;;;;;;;;;;;13.90;99.90;;;;;;5066486;28;19958;-53
2021/06/23 04:20:10;;;;;;;;;;;14.00;99.90;;;;;;5064646;28;20385;-51
2021/06/23 04:22:36;;;;;;;;;;;14.00;99.90;;;;;;5073289;28;19909;-49
2021/06/23 04:25:02;;;;;;;;;;;14.00;99.90;;;;;;5066916;28;19971;-51
2021/06/23 04:27:27;;;;;;;;;;;14.00;99.90;;;;;;5048622;28;19917;-51
2021/06/23 04:29:53;;;;;;;;;;;14.00;99.90;;;;;;5067858;28;20272;-52
2021/06/23 04:32:18;;;;;;;;;;;14.10;99.90;;;;;;5067273;28;19909;-54
2021/06/23 04:34:44;;;;;;;;;;;14.10;99.90;;;;;;5070135;28;19908;-51
2021/06/23 04:37:09;;;;;;;;;;;14.10;99.90;;;;;;5067560;28;19970;-48
2021/06/23 04:39:35;;;;;;;;;;;14.10;99.90;;;;;;5064809;28;20298;-54
2021/06/23 04:42:00;;;;;;;;;;;14.10;99.90;;;;;;5066869;28;19909;-54
2021/06/23 04:44:26;;;;;;;;;;;14.20;99.90;;;;;;5048056;28;19908;-55
2021/06/23 04:46:51;;;;;;;;;;;14.20;99.90;;;;;;5059328;28;19920;-52
2021/06/23 04:49:17;;;;;;;;;;;14.20;99.90;;;;;;5066992;28;19920;-57
2021/06/23 04:51:43;;;;;;;;;;;14.20;99.90;;;;;;5070525;28;19913;-50
2021/06/23 04:54:08;;;;;;;;;;;14.20;99.90;;;;;;5049088;28;19908;-49
2021/06/23 04:56:33;;;;;;;;;;;14.30;99.90;;;;;;5086087;22;19930;-57
2021/06/23 04:59:00;;;;;;;;;;;14.30;99.90;;;;;;5073528;28;19909;-60
2021/06/23 05:01:25;;;;;;;;;;;14.30;99.90;;;;;;5073565;28;20371;-60
2021/06/23 05:03:51;;;;;;;;;;;14.30;99.90;;;;;;5073635;28;19916;-60
2021/06/23 05:06:17;;;;;;;;;;;14.30;99.90;;;;;;5073356;28;20454;-60
2021/06/23 05:08:42;;;;;;;;;;;14.40;99.90;;;;;;5073484;28;20336;-58
2021/06/23 05:11:08;;;;;;;;;;;14.50;99.90;;;;;;5048932;28;19905;-61
2021/06/23 05:13:33;;;;;;;;;;;14.50;99.90;;;;;;5073459;28;19908;-60
2021/06/23 05:15:59;;;;;;;;;;;14.60;99.90;;;;;;5072882;28;19909;-64
2021/06/23 05:18:25;;;;;;;;;;;14.70;99.90;;;;;;5073386;28;19909;-60
2021/06/23 05:20:50;;;;;;;;;;;14.90;99.90;;;;;;5073177;28;19990;-60
2021/06/23 05:23:16;;;;;;;;;;;15.00;99.90;;;;;;5073052;28;19969;-59
2021/06/23 05:25:41;;;;;;;;;;;15.10;99.90;;;;;;5072825;28;20040;-60
2021/06/23 05:28:07;;;;;;;;;;;15.20;99.90;;;;;;5072888;28;19916;-60
2021/06/23 05:30:32;;;;;;;;;;;15.20;99.90;;;;;;5073255;28;19909;-60
2021/06/23 05:32:58;;;;;;;;;;;15.20;99.90;;;;;;5071539;28;20402;-60
2021/06/23 05:35:23;;;;;;;;;;;15.20;99.90;;;;;;5072832;28;20069;-60
2021/06/23 05:37:49;;;;;;;;;;;15.20;99.90;;;;;;5072720;28;20279;-60
2021/06/23 05:40:14;;;;;;;;;;;15.20;99.90;;;;;;5064774;28;19916;-59
2021/06/23 05:42:40;;;;;;;;;;;15.30;99.90;;;;;;5072849;28;20348;-60
2021/06/23 05:45:06;;;;;;;;;;;15.30;99.90;;;;;;5072285;28;20002;-60
2021/06/23 05:47:31;;;;;;;;;;;15.30;99.90;;;;;;5073041;28;19958;-62
2021/06/23 05:49:57;;;;;;;;;;;15.40;99.90;;;;;;5072535;28;19920;-61
2021/06/23 05:52:22;;;;;;;;;;;15.50;99.90;;;;;;5072460;28;19912;-61
2021/06/23 05:54:48;;;;;;;;;;;15.60;99.90;;;;;;5072970;28;19915;-60
2021/06/23 05:57:13;;;;;;;;;;;15.90;99.90;;;;;;5072341;28;19916;-60
2021/06/23 05:59:39;;;;;;;;;;;16.00;99.90;;;;;;5072616;28;19909;-59
2021/06/23 06:02:04;;;;;;;;;;;16.00;99.90;;;;;;5054965;28;20322;-62
2021/06/23 06:04:30;;;;;;;;;;;15.90;99.90;;;;;;5072525;28;19948;-58
2021/06/23 06:06:55;;;;;;;;;;;16.00;99.90;;;;;;5072273;28;19912;-62
2021/06/23 06:09:21;;;;;;;;;;;15.90;99.90;;;;;;5072287;28;19915;-60
2021/06/23 06:11:46;;;;;;;;;;;15.90;99.90;;;;;;5072360;28;19908;-61
2021/06/23 06:14:12;;;;;;;;;;;15.90;99.90;;;;;;5072577;28;19913;-61
2021/06/23 06:16:38;;;;;;;;;;;15.90;99.90;;;;;;5071945;28;19909;-61
2021/06/23 06:19:03;;;;;;;;;;;16.10;99.90;;;;;;5046077;28;19916;-60
2021/06/23 06:21:29;;;;;;;;;;;16.10;99.90;;;;;;5071930;28;20297;-63
2021/06/23 06:23:54;;;;;;;;;;;16.30;99.90;;;;;;5071938;28;19912;-62
2021/06/23 06:26:20;;;;;;;;;;;16.40;99.90;;;;;;5071431;28;19916;-61
2021/06/23 06:28:45;;;;;;;;;;;16.40;99.90;;;;;;5054183;28;20295;-61
2021/06/23 06:31:11;;;;;;;;;;;16.50;99.90;;;;;;5071772;28;20337;-60
2021/06/23 06:33:37;;;;;;;;;;;16.50;99.90;;;;;;5072278;28;20003;-61
2021/06/23 06:36:02;;;;;;;;;;;16.60;99.90;;;;;;5071515;28;19999;-60
2021/06/23 06:38:28;;;;;;;;;;;16.60;99.90;;;;;;5071658;28;19908;-61
2021/06/23 06:40:53;;;;;;;;;;;16.60;99.90;;;;;;5053678;28;20260;-61
2021/06/23 06:43:19;;;;;;;;;;;16.60;99.90;;;;;;5071329;28;19908;-61
2021/06/23 06:45:50;;;;;;;;;;;16.70;99.90;;;;;;5071395;28;19919;-62
2021/06/23 06:48:17;;;;;;;;;;;16.80;99.90;;;;;;5053648;28;19916;-61
2021/06/23 06:50:44;;;;;;;;;;;16.80;99.90;;;;;;5050537;28;20141;-60
2021/06/23 06:53:10;;;;;;;;;;;16.90;99.90;;;;;;5051305;28;19909;-61
2021/06/23 06:55:35;;;;;;;;;;;17.10;99.90;;;;;;5051147;28;19919;-59
2021/06/23 06:58:01;;;;;;;;;;;17.30;99.90;;;;;;5051433;28;19915;-61
2021/06/23 07:00:26;;;;;;;;;;;17.30;99.90;;;;;;5051263;28;19940;-62
2021/06/23 07:02:53;;;;;;;;;;;17.30;99.90;;;;;;5051714;28;20440;-63
2021/06/23 07:05:19;;;;;;;;;;;17.40;99.90;;;;;;5050699;28;19920;-61
2021/06/23 07:07:44;;;;;;;;;;;17.40;99.90;;;;;;5050748;28;20383;-64
2021/06/23 07:10:10;;;;;;;;;;;17.40;99.90;;;;;;5043608;28;19909;-58
2021/06/23 07:12:36;;;;;;;;;;;17.30;99.90;;;;;;5050796;28;19995;-60
2021/06/23 07:15:02;;;;;;;;;;;17.30;99.90;;;;;;5050744;28;19917;-62
2021/06/23 07:17:28;;;;;;;;;;;17.30;99.90;;;;;;5050674;28;20386;-60
2021/06/23 07:19:53;;;;;;;;;;;17.30;99.90;;;;;;5050980;28;19909;-60
2021/06/23 07:22:20;;;;;;;;;;;17.20;99.90;;;;;;5050988;28;20279;-61
2021/06/23 07:24:45;;;;;;;;;;;17.30;99.90;;;;;;5050498;28;20515;-60
2021/06/23 07:27:11;;;;;;;;;;;17.40;99.90;;;;;;5050767;28;19967;-58
2021/06/23 07:29:36;;;;;;;;;;;17.50;99.90;;;;;;5050823;28;19962;-62
2021/06/23 07:32:05;;;;;;;;;;;17.60;99.90;;;;;;5051125;28;20275;-59
2021/06/23 07:37:04;;;;;;;;;;;18.20;99.90;;;;;;5050828;28;19916;-59
2021/06/23 07:39:30;;;;;;;;;;;18.50;99.90;;;;;;5050760;28;19916;-60
2021/06/23 07:41:56;;;;;;;;;;;18.60;99.90;;;;;;5050569;28;19956;-60
2021/06/23 07:44:33;;;;;;;;;;;18.80;99.90;;;;;;5050902;28;20113;-61
2021/06/23 07:47:02;;;;;;;;;;;19.10;99.90;;;;;;5024044;28;19912;-58
2021/06/23 07:49:30;;;;;;;;;;;19.10;99.90;;;;;;5032520;28;19913;-59
2021/06/23 07:54:34;;;;;;;;;;;19.50;99.90;;;;;;5049936;28;20309;-63
2021/06/23 08:10:27;;;;;;;;;;;19.70;99.90;;;;;;5046551;28;20027;-61
2021/06/23 08:15:18;;;;;;;;;;;19.30;99.90;;;;;;5049915;28;19913;-59
2021/06/23 08:17:43;;;;;;;;;;;19.20;99.90;;;;;;5050125;28;19920;-60
2021/06/23 08:20:09;;;;;;;;;;;19.00;99.90;;;;;;5049907;28;20008;-61
2021/06/23 08:22:35;;;;;;;;;;;18.80;99.90;;;;;;5050009;28;19924;-61
2021/06/23 08:25:01;;;;;;;;;;;18.90;99.90;;;;;;5045564;28;19952;-60
2021/06/23 08:27:26;;;;;;;;;;;18.90;99.90;;;;;;5048069;28;19948;-61
2021/06/23 08:29:51;;;;;;;;;;;19.00;99.90;;;;;;5047654;28;20014;-61
2021/06/23 08:32:17;;;;;;;;;;;19.10;99.90;;;;;;5048238;28;19909;-60
2021/06/23 08:34:43;;;;;;;;;;;19.00;99.90;;;;;;5049877;28;19916;-60
2021/06/23 08:37:08;;;;;;;;;;;19.10;99.90;;;;;;5046380;28;19920;-62
2021/06/23 08:39:34;;;;;;;;;;;19.20;99.90;;;;;;5049957;28;19908;-60
2021/06/23 08:41:59;;;;;;;;;;;19.20;99.90;;;;;;5049940;28;19909;-61
2021/06/23 08:44:25;;;;;;;;;;;19.30;99.90;;;;;;5049749;28;19909;-61
2021/06/23 08:46:50;;;;;;;;;;;19.30;99.90;;;;;;5049543;28;20489;-61
2021/06/23 08:49:16;;;;;;;;;;;19.30;99.90;;;;;;5049073;28;19912;-60
2021/06/23 08:51:42;;;;;;;;;;;19.40;99.90;;;;;;5049873;28;19975;-61
2021/06/23 08:54:08;;;;;;;;;;;19.40;99.90;;;;;;5044207;28;19909;-61
2021/06/23 08:56:33;;;;;;;;;;;19.40;99.90;;;;;;5049789;28;19924;-61
2021/06/23 08:59:01;;;;;;;;;;;19.50;99.90;;;;;;5049632;28;19912;-60
2021/06/23 09:01:26;;;;;;;;;;;19.60;99.90;;;;;;5049129;28;19979;-62
2021/06/23 09:03:59;;;;;;;;;;;19.70;99.90;;;;;;5050222;28;19916;-62
2021/06/23 09:06:39;;;;;;;;;;;19.90;99.90;;;;;;5051103;28;19913;-61
2021/06/23 09:09:14;;;;;;;;;;;20.00;99.90;;;;;;5054622;28;19909;-60
2021/06/23 09:11:39;;;;;;;;;;;20.10;99.90;;;;;;5053207;28;20455;-64
2021/06/23 09:14:11;;;;;;;;;;;20.20;99.90;;;;;;5053219;28;20007;-60
2021/06/23 09:16:40;;;;;;;;;;;20.20;99.90;;;;;;5052749;28;19909;-59
2021/06/23 09:19:26;;;;;;;;;;;20.30;99.90;;;;;;5053094;28;19916;-61
2021/06/23 09:21:52;;;;;;;;;;;20.20;99.90;;;;;;5051844;28;20314;-62
2021/06/23 09:24:17;;;;;;;;;;;20.20;99.90;;;;;;5051250;28;19962;-61
2021/06/23 09:26:43;;;;;;;;;;;20.30;99.90;;;;;;5052759;28;20014;-60
2021/06/23 09:29:10;;;;;;;;;;;20.40;99.90;;;;;;5052983;28;19923;-63
2021/06/23 09:31:56;;;;;;;;;;;20.20;99.90;;;;;;5043308;28;20485;-62
2021/06/23 09:34:24;;;;;;;;;;;20.10;99.90;;;;;;5046061;28;19952;-61
2021/06/23 09:36:50;;;;;;;;;;;20.20;99.90;;;;;;5052386;28;20297;-61
2021/06/23 09:39:20;;;;;;;;;;;20.10;99.90;;;;;;5053024;28;20298;-63
2021/06/23 09:41:46;;;;;;;;;;;20.10;99.90;;;;;;5052784;28;19916;-60
2021/06/23 09:44:12;;;;;;;;;;;20.00;99.90;;;;;;5052647;28;19992;-60
2021/06/23 09:46:39;;;;;;;;;;;20.00;99.90;;;;;;5052504;28;20008;-61
2021/06/23 09:49:24;;;;;;;;;;;20.00;99.90;;;;;;5052549;28;19916;-61
2021/06/23 09:51:54;;;;;;;;;;;20.00;99.90;;;;;;5052675;28;20510;-61
2021/06/23 09:54:20;;;;;;;;;;;20.00;99.90;;;;;;5043402;28;19916;-61
2021/06/23 09:56:47;;;;;;;;;;;20.00;99.90;;;;;;5048105;28;20576;-60
2021/06/23 09:59:36;;;;;;;;;;;20.00;99.90;;;;;;5052564;28;19909;-60
2021/06/23 10:02:02;;;;;;;;;;;19.90;99.90;;;;;;5052929;28;19915;-60
2021/06/23 10:04:35;;;;;;;;;;;19.90;99.90;;;;;;5052309;28;20365;-61
2021/06/23 10:07:01;;;;;;;;;;;19.80;99.90;;;;;;5052291;28;19913;-61
2021/06/23 10:09:29;;;;;;;;;;;20.00;99.90;;;;;;5052577;28;20370;-61
2021/06/23 10:11:54;;;;;;;;;;;20.10;99.90;;;;;;5052367;28;19997;-60
2021/06/23 10:14:21;;;;;;;;;;;20.20;99.90;;;;;;5052122;28;19948;-60
2021/06/23 10:16:50;;;;;;;;;;;20.20;99.90;;;;;;5034143;28;19909;-61
2021/06/23 10:19:16;;;;;;;;;;;20.30;99.90;;;;;;5046633;28;19909;-62
2021/06/23 10:21:42;;;;;;;;;;;20.40;99.90;;;;;;5034186;28;20286;-61
2021/06/23 10:24:09;;;;;;;;;;;20.60;99.90;;;;;;5047709;28;20058;-63
2021/06/23 10:26:37;;;;;;;;;;;20.60;99.90;;;;;;5046913;28;19913;-62
2021/06/23 10:29:04;;;;;;;;;;;20.50;99.90;;;;;;5052075;28;19913;-61
2021/06/23 10:31:30;;;;;;;;;;;20.50;99.90;;;;;;5052112;28;20004;-60
2021/06/23 10:33:55;;;;;;;;;;;20.60;99.90;;;;;;5051563;28;19952;-60
2021/06/23 10:36:24;;;;;;;;;;;20.70;99.90;;;;;;5051715;28;19955;-62
2021/06/23 10:38:50;;;;;;;;;;;21.00;99.90;;;;;;5051251;28;20398;-61
2021/06/23 10:41:16;;;;;;;;;;;21.30;99.90;;;;;;5033818;28;19916;-61
2021/06/23 10:43:43;;;;;;;;;;;21.70;99.90;;;;;;5029267;28;19909;-61
2021/06/23 10:46:10;;;;;;;;;;;22.10;99.90;;;;;;5050955;28;20008;-63
2021/06/23 10:48:54;;;;;;;;;;;22.40;99.90;;;;;;5033590;28;19908;-62
2021/06/23 10:51:27;;;;;;;;;;;22.70;99.90;;;;;;5044242;28;19941;-61
2021/06/23 10:53:53;;;;;;;;;;;22.90;99.90;;;;;;5051335;28;19913;-61
2021/06/23 10:56:37;;;;;;;;;;;23.10;98.00;;;;;;5051278;28;19923;-62
2021/06/23 10:59:23;;;;;;;;;;;23.20;99.90;;;;;;5051159;28;20379;-62
2021/06/23 11:02:07;;;;;;;;;;;23.30;98.80;;;;;;5051396;28;20307;-59
2021/06/23 11:04:51;;;;;;;;;;;22.70;96.80;;;;;;5050680;28;19971;-61
2021/06/23 11:07:35;;;;;;;;;;;22.60;98.50;;;;;;5045341;28;19917;-61
2021/06/23 11:10:16;;;;;;;;;;;22.60;99.40;;;;;;5050976;28;19934;-62
2021/06/23 11:12:46;;;;;;;;;;;22.40;98.40;;;;;;5050956;28;19909;-61
2021/06/23 11:15:16;;;;;;;;;;;22.20;99.90;;;;;;5050403;28;19909;-62
2021/06/23 11:17:42;;;;;;;;;;;21.90;99.90;;;;;;5050697;28;19931;-61
2021/06/23 11:20:28;;;;;;;;;;;21.70;99.90;;;;;;5050818;28;20367;-60
2021/06/23 11:22:55;;;;;;;;;;;21.70;99.90;;;;;;5032623;28;19909;-63
2021/06/23 11:25:23;;;;;;;;;;;21.80;99.90;;;;;;5049457;28;19938;-61
2021/06/23 11:28:07;;;;;;;;;;;21.80;99.90;;;;;;5051037;28;19979;-62
2021/06/23 11:30:33;;;;;;;;;;;21.80;99.90;;;;;;5050178;28;20409;-62
2021/06/23 11:33:18;;;;;;;;;;;21.80;99.90;;;;;;5050746;28;19948;-61
2021/06/23 11:35:44;;;;;;;;;;;21.70;99.90;;;;;;5045980;28;20386;-60
2021/06/23 11:38:09;;;;;;;;;;;21.80;99.90;;;;;;5050529;28;19967;-63
2021/06/23 11:40:35;;;;;;;;;;;21.80;99.90;;;;;;5050483;28;19909;-61
2021/06/23 11:43:02;;;;;;;;;;;22.00;99.90;;;;;;5050209;28;20378;-61
2021/06/23 11:45:27;;;;;;;;;;;22.10;99.90;;;;;;5049976;28;20098;-61
2021/06/23 11:47:53;;;;;;;;;;;22.00;98.00;;;;;;5050503;28;20434;-61
2021/06/23 11:50:19;;;;;;;;;;;22.10;99.90;;;;;;5050111;28;19971;-60
2021/06/23 11:52:44;;;;;;;;;;;22.30;99.90;;;;;;5050471;28;19998;-59
2021/06/23 11:55:11;;;;;;;;;;;22.40;99.70;;;;;;5032401;28;20390;-60
2021/06/23 11:57:37;;;;;;;;;;;22.50;99.20;;;;;;5050342;28;19908;-60
2021/06/23 12:00:03;;;;;;;;;;;22.70;99.90;;;;;;5050381;28;19919;-62
2021/06/23 12:02:28;;;;;;;;;;;22.90;98.40;;;;;;5050238;28;19923;-62
2021/06/23 12:04:54;;;;;;;;;;;23.00;97.70;;;;;;5049976;28;19909;-62
2021/06/23 12:07:19;;;;;;;;;;;22.80;96.20;;;;;;5049967;28;20410;-61
2021/06/23 12:09:45;;;;;;;;;;;22.50;96.10;;;;;;5050279;28;20375;-64
2021/06/23 12:12:10;;;;;;;;;;;22.40;97.50;;;;;;5032326;28;19944;-60
2021/06/23 12:14:36;;;;;;;;;;;22.40;98.00;;;;;;5049727;28;20517;-63
2021/06/23 12:17:01;;;;;;;;;;;22.50;97.70;;;;;;5050034;28;19931;-62
2021/06/23 12:19:27;;;;;;;;;;;22.70;98.30;;;;;;5032687;28;20354;-59
2021/06/23 12:21:52;;;;;;;;;;;22.80;98.10;;;;;;5049973;28;19913;-57
2021/06/23 12:24:18;;;;;;;;;;;23.10;98.90;;;;;;5048556;28;20335;-61
2021/06/23 12:26:43;;;;;;;;;;;23.50;98.20;;;;;;5049677;28;19921;-57
2021/06/23 12:29:09;;;;;;;;;;;23.80;96.80;;;;;;5050496;28;19928;-64
2021/06/23 12:31:34;;;;;;;;;;;23.90;97.20;;;;;;5050230;28;20557;-63
2021/06/23 12:34:00;;;;;;;;;;;23.70;96.20;;;;;;5049815;28;20376;-63
2021/06/23 12:36:25;;;;;;;;;;;23.60;98.10;;;;;;5049648;28;19909;-59
2021/06/23 12:38:51;;;;;;;;;;;23.70;97.60;;;;;;5049722;28;20275;-62
2021/06/23 12:41:16;;;;;;;;;;;23.80;98.30;;;;;;5051395;28;20432;-64
2021/06/23 12:43:42;;;;;;;;;;;24.10;97.30;;;;;;5054057;28;20019;-58
2021/06/23 12:46:08;;;;;;;;;;;24.30;96.10;;;;;;5053179;28;19916;-62
2021/06/23 12:48:33;;;;;;;;;;;24.30;97.00;;;;;;5053800;28;19909;-62
2021/06/23 12:50:59;;;;;;;;;;;24.20;94.40;;;;;;5053384;28;19916;-62
2021/06/23 12:53:24;;;;;;;;;;;24.20;95.50;;;;;;5053748;28;20349;-59
2021/06/23 12:55:50;;;;;;;;;;;24.00;95.50;;;;;;5035366;28;20004;-61
2021/06/23 12:58:16;;;;;;;;;;;23.80;96.00;;;;;;5053960;28;19955;-58
2021/06/23 13:00:41;;;;;;;;;;;23.80;96.10;;;;;;5053602;28;19909;-62
2021/06/23 13:03:07;;;;;;;;;;;23.30;94.80;;;;;;5053172;28;20340;-62
2021/06/23 13:05:33;;;;;;;;;;;23.30;95.30;;;;;;5052784;28;19921;-63
2021/06/23 13:07:59;;;;;;;;;;;23.20;96.20;;;;;;5053297;28;19909;-62
2021/06/23 13:10:25;;;;;;;;;;;23.30;96.30;;;;;;5053470;28;19916;-61
2021/06/23 13:12:50;;;;;;;;;;;23.50;96.20;;;;;;5052979;28;20317;-61
2021/06/23 13:15:19;;;;;;;;;;;23.60;96.10;;;;;;5052903;28;19916;-61
2021/06/23 13:17:45;;;;;;;;;;;23.50;95.90;;;;;;5052945;28;19909;-62
2021/06/23 13:20:10;;;;;;;;;;;23.70;95.10;;;;;;5053155;28;19920;-62
2021/06/23 13:22:36;;;;;;;;;;;23.70;96.30;;;;;;5035309;28;19913;-62
2021/06/23 13:25:02;;;;;;;;;;;23.80;95.80;;;;;;5032881;28;20374;-62
2021/06/23 13:27:28;;;;;;;;;;;24.00;96.40;;;;;;5053278;28;20002;-61
2021/06/23 13:29:53;;;;;;;;;;;24.10;96.40;;;;;;5053145;28;20336;-62
2021/06/23 13:32:20;;;;;;;;;;;24.20;95.20;;;;;;5052685;28;19909;-61
2021/06/23 13:34:46;;;;;;;;;;;24.20;95.10;;;;;;5052619;28;19916;-60
2021/06/23 13:37:12;;;;;;;;;;;24.10;94.30;;;;;;5052628;28;19909;-61
2021/06/23 13:39:37;;;;;;;;;;;24.10;93.80;;;;;;5052972;28;19999;-61
2021/06/23 13:42:03;;;;;;;;;;;24.10;95.00;;;;;;5052654;28;19959;-63
2021/06/23 13:44:28;;;;;;;;;;;24.00;95.90;;;;;;5052709;28;19920;-64
2021/06/23 13:46:54;;;;;;;;;;;23.90;95.30;;;;;;5052378;28;20003;-62
2021/06/23 13:49:20;;;;;;;;;;;23.80;95.00;;;;;;5034899;28;19920;-61
2021/06/23 13:51:45;;;;;;;;;;;23.90;95.00;;;;;;5052454;28;20331;-61
2021/06/23 13:54:11;;;;;;;;;;;23.70;93.50;;;;;;5051693;28;19908;-62
2021/06/23 13:56:37;;;;;;;;;;;23.60;94.60;;;;;;5052777;28;19917;-61
2021/06/23 13:59:03;;;;;;;;;;;23.60;95.30;;;;;;5052731;28;19917;-61
2021/06/23 14:01:29;;;;;;;;;;;23.60;91.90;;;;;;5052413;28;19908;-61
2021/06/23 14:03:55;;;;;;;;;;;23.40;94.60;;;;;;5043874;28;19909;-61
2021/06/23 14:06:24;;;;;;;;;;;23.40;96.00;;;;;;5034145;28;20287;-62
2021/06/23 14:08:49;;;;;;;;;;;23.40;95.20;;;;;;5052255;28;19940;-62
2021/06/23 14:11:15;;;;;;;;;;;23.30;95.00;;;;;;5052216;28;19983;-64
2021/06/23 14:13:41;;;;;;;;;;;23.10;94.80;;;;;;5049484;28;19908;-61
2021/06/23 14:16:06;;;;;;;;;;;23.20;95.00;;;;;;5052285;28;19913;-60
2021/06/23 14:18:32;;;;;;;;;;;23.10;96.10;;;;;;5052049;28;20341;-62
2021/06/23 14:20:58;;;;;;;;;;;22.90;95.70;;;;;;5052083;28;19978;-61
2021/06/23 14:23:23;;;;;;;;;;;22.90;95.70;;;;;;5052155;28;19999;-62
2021/06/23 14:25:50;;;;;;;;;;;22.90;96.40;;;;;;5051740;28;20398;-61
2021/06/23 14:28:16;;;;;;;;;;;22.90;96.90;;;;;;5052100;28;19909;-60
2021/06/23 14:30:42;;;;;;;;;;;22.90;94.80;;;;;;5052212;28;19915;-61
2021/06/23 14:33:07;;;;;;;;;;;22.70;95.90;;;;;;5051688;28;19991;-61
2021/06/23 14:35:33;;;;;;;;;;;22.60;95.90;;;;;;5033873;28;19908;-63